createdAt,value
2017-01-23T00:00:58.817Z,1019.07
2017-01-23T00:01:58.792Z,1019.04
2017-01-23T00:02:58.766Z,1019
2017-01-23T00:03:58.728Z,1018.95
2017-01-23T00:04:58.701Z,1018.93
2017-01-23T00:05:58.676Z,1018.94
2017-01-23T00:06:58.648Z,1018.93
2017-01-23T00:07:58.618Z,1018.89
2017-01-23T00:08:58.590Z,1018.86
2017-01-23T00:09:58.560Z,1018.91
2017-01-23T00:10:58.533Z,1018.89
2017-01-23T00:11:58.505Z,1018.92
2017-01-23T00:12:58.483Z,1018.9
2017-01-23T00:13:58.447Z,1018.93
2017-01-23T00:14:58.419Z,1018.92
2017-01-23T00:15:58.395Z,1018.92
2017-01-23T00:16:58.364Z,1018.95
2017-01-23T00:17:58.335Z,1018.96
2017-01-23T00:18:58.308Z,1018.94
2017-01-23T00:19:58.286Z,1018.94
2017-01-23T00:20:58.251Z,1018.91
2017-01-23T00:21:58.221Z,1018.91
2017-01-23T00:22:58.194Z,1018.94
2017-01-23T00:23:58.164Z,1018.9
2017-01-23T00:24:58.135Z,1018.92
2017-01-23T00:25:58.114Z,1018.9
2017-01-23T00:26:58.081Z,1018.94
2017-01-23T00:27:58.051Z,1018.97
2017-01-23T00:28:58.029Z,1018.95
2017-01-23T00:29:57.995Z,1018.99
2017-01-23T00:30:57.964Z,1019.01
2017-01-23T00:31:57.944Z,1018.96
2017-01-23T00:32:57.912Z,1019
2017-01-23T00:33:57.880Z,1018.94
2017-01-23T00:34:57.855Z,1018.97
2017-01-23T00:35:57.826Z,1018.93
2017-01-23T00:36:57.794Z,1018.97
2017-01-23T00:37:57.768Z,1018.94
2017-01-23T00:38:57.738Z,1018.98
2017-01-23T00:39:57.713Z,1018.95
2017-01-23T00:40:57.683Z,1018.93
2017-01-23T00:41:57.653Z,1018.94
2017-01-23T00:42:57.627Z,1018.94
2017-01-23T00:43:57.594Z,1018.95
2017-01-23T00:44:57.566Z,1018.96
2017-01-23T00:45:57.540Z,1018.93
2017-01-23T00:46:57.507Z,1018.89
2017-01-23T00:47:57.488Z,1018.88
2017-01-23T00:48:57.453Z,1018.86
2017-01-23T00:49:57.427Z,1018.81
2017-01-23T00:50:57.396Z,1018.8
2017-01-23T00:51:57.366Z,1018.82
2017-01-23T00:52:57.338Z,1018.83
2017-01-23T00:53:57.306Z,1018.83
2017-01-23T00:54:57.279Z,1018.83
2017-01-23T00:55:57.253Z,1018.84
2017-01-23T00:56:57.226Z,1018.89
2017-01-23T00:57:57.192Z,1018.86
2017-01-23T00:58:57.166Z,1018.88
2017-01-23T00:59:57.140Z,1018.89
2017-01-23T01:00:57.111Z,1018.9
2017-01-23T01:01:57.078Z,1018.92
2017-01-23T01:02:57.049Z,1018.95
2017-01-23T01:03:57.020Z,1018.93
2017-01-23T01:04:57.005Z,1018.94
2017-01-23T01:05:56.976Z,1018.94
2017-01-23T01:06:56.934Z,1018.92
2017-01-23T01:07:56.905Z,1018.95
2017-01-23T01:08:56.883Z,1018.95
2017-01-23T01:09:56.852Z,1018.99
2017-01-23T01:10:56.822Z,1018.96
2017-01-23T01:11:56.791Z,1019
2017-01-23T01:12:56.760Z,1018.96
2017-01-23T01:13:56.736Z,1018.95
2017-01-23T01:14:56.719Z,1018.94
2017-01-23T01:15:56.679Z,1018.93
2017-01-23T01:16:56.647Z,1018.97
2017-01-23T01:17:56.618Z,1018.93
2017-01-23T01:18:56.591Z,1018.96
2017-01-23T01:19:56.559Z,1019.02
2017-01-23T01:20:56.530Z,1018.99
2017-01-23T01:21:56.501Z,1019.04
2017-01-23T01:22:56.474Z,1019.06
2017-01-23T01:23:56.446Z,1019.07
2017-01-23T01:24:56.416Z,1019.07
2017-01-23T01:25:56.393Z,1019.1
2017-01-23T01:26:56.361Z,1019.08
2017-01-23T01:27:56.332Z,1019.11
2017-01-23T01:28:56.311Z,1019.08
2017-01-23T01:29:56.282Z,1019.09
2017-01-23T01:30:56.250Z,1019.04
2017-01-23T01:31:56.216Z,1019.03
2017-01-23T01:32:56.186Z,1019.06
2017-01-23T01:33:56.158Z,1019.05
2017-01-23T01:34:56.128Z,1019.02
2017-01-23T01:35:56.107Z,1019.06
2017-01-23T01:36:56.077Z,1019.02
2017-01-23T01:37:56.047Z,1019.04
2017-01-23T01:38:56.016Z,1019.05
2017-01-23T01:39:55.987Z,1019.06
2017-01-23T01:40:55.960Z,1019.06
2017-01-23T01:41:55.935Z,1019.03
2017-01-23T01:42:55.902Z,1019.09
2017-01-23T01:43:55.875Z,1019.08
2017-01-23T01:44:55.840Z,1019.04
2017-01-23T01:45:55.812Z,1019.04
2017-01-23T01:46:55.786Z,1019.02
2017-01-23T01:47:55.757Z,1019.04
2017-01-23T01:48:55.724Z,1019.1
2017-01-23T01:49:55.699Z,1019.08
2017-01-23T01:50:55.669Z,1019.08
2017-01-23T01:51:55.638Z,1019.12
2017-01-23T01:52:55.608Z,1019.13
2017-01-23T01:53:55.591Z,1019.12
2017-01-23T01:54:55.558Z,1019.14
2017-01-23T01:55:55.535Z,1019.13
2017-01-23T01:56:55.496Z,1019.14
2017-01-23T01:57:55.464Z,1019.07
2017-01-23T01:58:55.445Z,1019.1
2017-01-23T01:59:55.416Z,1019.1
2017-01-23T02:00:55.377Z,1019.1
2017-01-23T02:01:55.351Z,1019.09
2017-01-23T02:02:55.322Z,1019.06
2017-01-23T02:03:55.290Z,1019.11
2017-01-23T02:04:55.261Z,1019.05
2017-01-23T02:05:55.235Z,1019
2017-01-23T02:06:55.210Z,1019.01
2017-01-23T02:07:55.176Z,1018.99
2017-01-23T02:08:55.145Z,1018.99
2017-01-23T02:09:55.119Z,1019.01
2017-01-23T02:10:55.085Z,1019
2017-01-23T02:11:55.068Z,1019.01
2017-01-23T02:12:55.037Z,1019.01
2017-01-23T02:13:55.006Z,1019.06
2017-01-23T02:14:54.979Z,1019.04
2017-01-23T02:15:54.940Z,1019.02
2017-01-23T02:16:54.914Z,1019.03
2017-01-23T02:17:54.885Z,1019.07
2017-01-23T02:18:54.855Z,1019.02
2017-01-23T02:19:54.829Z,1019.02
2017-01-23T02:20:54.797Z,1019
2017-01-23T02:21:54.765Z,1019.01
2017-01-23T02:22:54.840Z,1018.98
2017-01-23T02:23:54.711Z,1018.98
2017-01-23T02:24:54.784Z,1018.97
2017-01-23T02:25:54.659Z,1018.95
2017-01-23T02:26:54.632Z,1018.95
2017-01-23T02:27:54.598Z,1018.96
2017-01-23T02:28:54.627Z,1018.98
2017-01-23T02:29:54.537Z,1018.94
2017-01-23T02:30:54.507Z,1018.96
2017-01-23T02:31:54.475Z,1018.98
2017-01-23T02:32:54.457Z,1018.95
2017-01-23T02:33:54.416Z,1019.01
2017-01-23T02:34:54.463Z,1019.03
2017-01-23T02:35:54.363Z,1018.98
2017-01-23T02:36:54.345Z,1019
2017-01-23T02:37:54.302Z,1018.99
2017-01-23T02:38:54.281Z,1019.01
2017-01-23T02:39:54.247Z,1019.03
2017-01-23T02:40:54.221Z,1019.03
2017-01-23T02:41:54.190Z,1019.04
2017-01-23T02:42:54.160Z,1019.02
2017-01-23T02:43:54.130Z,1018.98
2017-01-23T02:44:54.099Z,1018.99
2017-01-23T02:45:54.079Z,1018.96
2017-01-23T02:46:54.047Z,1018.95
2017-01-23T02:47:54.011Z,1018.93
2017-01-23T02:48:53.987Z,1018.94
2017-01-23T02:49:53.956Z,1018.92
2017-01-23T02:50:53.925Z,1018.98
2017-01-23T02:51:53.893Z,1019.02
2017-01-23T02:52:53.863Z,1018.99
2017-01-23T02:53:53.840Z,1019.01
2017-01-23T02:54:53.806Z,1019.04
2017-01-23T02:55:53.782Z,1019.06
2017-01-23T02:56:53.750Z,1019.04
2017-01-23T02:57:53.724Z,1018.99
2017-01-23T02:58:53.693Z,1019.01
2017-01-23T02:59:53.661Z,1019.05
2017-01-23T03:00:53.633Z,1018.99
2017-01-23T03:01:53.603Z,1018.99
2017-01-23T03:02:53.578Z,1019.02
2017-01-23T03:03:53.546Z,1019.03
2017-01-23T03:04:53.519Z,1019.04
2017-01-23T03:05:53.488Z,1019.04
2017-01-23T03:06:53.459Z,1019.04
2017-01-23T03:07:53.431Z,1019.04
2017-01-23T03:08:53.401Z,1019.08
2017-01-23T03:09:53.370Z,1019.02
2017-01-23T03:10:53.344Z,1019.04
2017-01-23T03:11:53.316Z,1019.03
2017-01-23T03:12:53.285Z,1019.11
2017-01-23T03:13:53.261Z,1019.1
2017-01-23T03:14:53.230Z,1019.07
2017-01-23T03:15:53.202Z,1019.09
2017-01-23T03:16:53.173Z,1019.09
2017-01-23T03:17:53.143Z,1019.1
2017-01-23T03:18:53.110Z,1019.12
2017-01-23T03:19:53.082Z,1019.1
2017-01-23T03:20:53.050Z,1019.09
2017-01-23T03:21:53.111Z,1019.1
2017-01-23T03:22:53.000Z,1019.1
2017-01-23T03:23:52.969Z,1019.15
2017-01-23T03:24:52.940Z,1019.13
2017-01-23T03:25:52.920Z,1019.16
2017-01-23T03:26:52.880Z,1019.12
2017-01-23T03:27:52.847Z,1019.11
2017-01-23T03:28:52.825Z,1019.13
2017-01-23T03:29:52.793Z,1019.15
2017-01-23T03:30:52.764Z,1019.13
2017-01-23T03:31:52.737Z,1019.1
2017-01-23T03:32:52.706Z,1019.1
2017-01-23T03:33:52.676Z,1019.08
2017-01-23T03:34:52.644Z,1019.07
2017-01-23T03:35:52.624Z,1019.03
2017-01-23T03:36:52.623Z,1019.07
2017-01-23T03:37:52.567Z,1019.04
2017-01-23T03:38:52.544Z,1019.06
2017-01-23T03:39:52.503Z,1019.08
2017-01-23T03:40:52.474Z,1019.05
2017-01-23T03:41:52.442Z,1019.02
2017-01-23T03:42:52.418Z,1019.01
2017-01-23T03:43:52.391Z,1018.99
2017-01-23T03:44:52.361Z,1018.99
2017-01-23T03:45:52.331Z,1018.96
2017-01-23T03:46:52.302Z,1018.94
2017-01-23T03:47:52.270Z,1018.94
2017-01-23T03:48:52.247Z,1018.9
2017-01-23T03:49:52.220Z,1018.91
2017-01-23T03:50:52.186Z,1018.9
2017-01-23T03:51:52.156Z,1018.95
2017-01-23T03:52:52.127Z,1018.92
2017-01-23T03:53:52.096Z,1018.91
2017-01-23T03:54:52.068Z,1018.93
2017-01-23T03:55:52.046Z,1018.93
2017-01-23T03:56:52.011Z,1018.94
2017-01-23T03:57:51.985Z,1018.92
2017-01-23T03:58:51.980Z,1018.91
2017-01-23T03:59:51.924Z,1018.92
2017-01-23T04:00:51.895Z,1018.96
2017-01-23T04:01:51.874Z,1018.93
2017-01-23T04:02:51.839Z,1018.93
2017-01-23T04:03:51.812Z,1018.9
2017-01-23T04:04:51.783Z,1018.92
2017-01-23T04:05:51.750Z,1018.91
2017-01-23T04:06:51.722Z,1018.96
2017-01-23T04:07:51.691Z,1018.89
2017-01-23T04:08:51.662Z,1018.9
2017-01-23T04:09:51.639Z,1019
2017-01-23T04:10:51.609Z,1018.96
2017-01-23T04:11:51.577Z,1018.97
2017-01-23T04:12:51.547Z,1018.97
2017-01-23T04:13:51.516Z,1019.02
2017-01-23T04:14:51.492Z,1019.01
2017-01-23T04:15:51.463Z,1019
2017-01-23T04:16:51.435Z,1019.03
2017-01-23T04:17:51.402Z,1019.03
2017-01-23T04:18:51.370Z,1019.03
2017-01-23T04:19:51.344Z,1019
2017-01-23T04:20:51.314Z,1019.06
2017-01-23T04:21:51.287Z,1019.02
2017-01-23T04:22:51.259Z,1018.97
2017-01-23T04:23:51.229Z,1018.98
2017-01-23T04:24:51.203Z,1018.99
2017-01-23T04:25:51.172Z,1018.99
2017-01-23T04:26:51.143Z,1018.97
2017-01-23T04:27:51.110Z,1018.96
2017-01-23T04:28:51.083Z,1019
2017-01-23T04:29:51.054Z,1018.98
2017-01-23T04:30:51.023Z,1019
2017-01-23T04:31:50.996Z,1019
2017-01-23T04:32:50.968Z,1019
2017-01-23T04:33:50.937Z,1019.01
2017-01-23T04:34:50.908Z,1018.97
2017-01-23T04:35:50.887Z,1019.01
2017-01-23T04:36:50.854Z,1019.06
2017-01-23T04:37:50.822Z,1019.01
2017-01-23T04:38:50.794Z,1019.04
2017-01-23T04:39:50.765Z,1019.04
2017-01-23T04:40:50.732Z,1019.02
2017-01-23T04:41:50.728Z,1019.03
2017-01-23T04:42:50.676Z,1019.03
2017-01-23T04:43:50.653Z,1019.04
2017-01-23T04:44:50.625Z,1019.05
2017-01-23T04:45:50.592Z,1019.11
2017-01-23T04:46:50.561Z,1019.03
2017-01-23T04:47:50.533Z,1019.07
2017-01-23T04:48:50.514Z,1019.08
2017-01-23T04:49:50.480Z,1019.04
2017-01-23T04:50:50.448Z,1019.05
2017-01-23T04:51:50.421Z,1019.06
2017-01-23T04:52:50.389Z,1019.08
2017-01-23T04:53:50.360Z,1019.01
2017-01-23T04:54:50.334Z,1019.02
2017-01-23T04:55:50.301Z,1019.02
2017-01-23T04:56:50.271Z,1019.02
2017-01-23T04:57:50.248Z,1019.06
2017-01-23T04:58:50.213Z,1019.08
2017-01-23T04:59:50.189Z,1019.08
2017-01-23T05:00:50.164Z,1019.08
2017-01-23T05:01:50.134Z,1019.02
2017-01-23T05:02:50.114Z,1019.05
2017-01-23T05:03:50.072Z,1019.07
2017-01-23T05:04:50.041Z,1019.11
2017-01-23T05:05:50.012Z,1019.08
2017-01-23T05:06:49.988Z,1019.17
2017-01-23T05:07:49.961Z,1019.11
2017-01-23T05:08:49.929Z,1019.1
2017-01-23T05:09:49.896Z,1019.07
2017-01-23T05:10:49.872Z,1019.09
2017-01-23T05:11:49.839Z,1019.01
2017-01-23T05:12:49.809Z,1019.07
2017-01-23T05:13:49.780Z,1019.07
2017-01-23T05:14:49.756Z,1019.04
2017-01-23T05:15:49.725Z,1019.06
2017-01-23T05:16:49.692Z,1019.03
2017-01-23T05:17:49.665Z,1019.05
2017-01-23T05:18:49.645Z,1019.04
2017-01-23T05:19:49.613Z,1019.04
2017-01-23T05:20:49.608Z,1019.04
2017-01-23T05:21:49.553Z,1019.02
2017-01-23T05:22:49.522Z,1019.03
2017-01-23T05:23:49.492Z,1019.01
2017-01-23T05:24:49.465Z,1019.03
2017-01-23T05:25:49.439Z,1018.99
2017-01-23T05:26:49.407Z,1018.99
2017-01-23T05:27:49.377Z,1018.95
2017-01-23T05:28:49.355Z,1018.99
2017-01-23T05:29:49.321Z,1019.01
2017-01-23T05:30:49.296Z,1018.98
2017-01-23T05:31:49.269Z,1018.95
2017-01-23T05:32:49.237Z,1018.95
2017-01-23T05:33:49.207Z,1018.99
2017-01-23T05:34:49.176Z,1018.97
2017-01-23T05:35:49.147Z,1018.97
2017-01-23T05:36:49.124Z,1018.96
2017-01-23T05:37:49.090Z,1018.98
2017-01-23T05:38:49.066Z,1019.02
2017-01-23T05:39:49.035Z,1019.06
2017-01-23T05:40:49.033Z,1019.03
2017-01-23T05:41:48.973Z,1019.08
2017-01-23T05:42:48.980Z,1019.05
2017-01-23T05:43:48.916Z,1019.09
2017-01-23T05:44:48.889Z,1019.11
2017-01-23T05:45:48.860Z,1019.16
2017-01-23T05:46:48.930Z,1019.21
2017-01-23T05:47:48.808Z,1019.22
2017-01-23T05:48:48.778Z,1019.22
2017-01-23T05:49:48.748Z,1019.18
2017-01-23T05:50:48.733Z,1019.2
2017-01-23T05:51:48.687Z,1019.22
2017-01-23T05:52:48.660Z,1019.23
2017-01-23T05:53:48.633Z,1019.22
2017-01-23T05:54:48.718Z,1019.26
2017-01-23T05:55:48.575Z,1019.26
2017-01-23T05:56:48.560Z,1019.3
2017-01-23T05:57:48.514Z,1019.28
2017-01-23T05:58:48.485Z,1019.34
2017-01-23T05:59:48.464Z,1019.27
2017-01-23T06:00:48.434Z,1019.33
2017-01-23T06:01:48.402Z,1019.33
2017-01-23T06:02:48.375Z,1019.28
2017-01-23T06:03:48.343Z,1019.29
2017-01-23T06:04:48.314Z,1019.32
2017-01-23T06:05:48.291Z,1019.35
2017-01-23T06:06:48.258Z,1019.31
2017-01-23T06:07:48.230Z,1019.29
2017-01-23T06:08:48.209Z,1019.3
2017-01-23T06:09:48.177Z,1019.3
2017-01-23T06:10:48.146Z,1019.32
2017-01-23T06:11:48.118Z,1019.29
2017-01-23T06:12:48.109Z,1019.33
2017-01-23T06:13:48.057Z,1019.3
2017-01-23T06:14:48.032Z,1019.31
2017-01-23T06:15:48.004Z,1019.27
2017-01-23T06:16:47.971Z,1019.32
2017-01-23T06:17:47.943Z,1019.25
2017-01-23T06:18:47.924Z,1019.21
2017-01-23T06:19:47.887Z,1019.17
2017-01-23T06:20:47.862Z,1019.18
2017-01-23T06:21:47.830Z,1019.18
2017-01-23T06:22:47.816Z,1019.16
2017-01-23T06:23:47.782Z,1019.17
2017-01-23T06:24:47.743Z,1019.2
2017-01-23T06:25:47.721Z,1019.21
2017-01-23T06:26:47.688Z,1019.15
2017-01-23T06:27:47.668Z,1019.16
2017-01-23T06:28:47.632Z,1019.18
2017-01-23T06:29:47.608Z,1019.26
2017-01-23T06:30:47.585Z,1019.25
2017-01-23T06:31:47.544Z,1019.3
2017-01-23T06:32:47.515Z,1019.36
2017-01-23T06:33:47.535Z,1019.39
2017-01-23T06:34:47.458Z,1019.43
2017-01-23T06:35:47.432Z,1019.41
2017-01-23T06:36:47.402Z,1019.43
2017-01-23T06:37:47.380Z,1019.43
2017-01-23T06:38:47.351Z,1019.42
2017-01-23T06:39:47.319Z,1019.44
2017-01-23T06:40:47.293Z,1019.43
2017-01-23T06:41:47.259Z,1019.4
2017-01-23T06:42:47.229Z,1019.45
2017-01-23T06:43:47.208Z,1019.44
2017-01-23T06:44:47.178Z,1019.41
2017-01-23T06:45:47.145Z,1019.44
2017-01-23T06:46:47.117Z,1019.43
2017-01-23T06:47:47.096Z,1019.48
2017-01-23T06:48:47.067Z,1019.48
2017-01-23T06:49:47.036Z,1019.49
2017-01-23T06:50:47.006Z,1019.49
2017-01-23T06:51:46.975Z,1019.47
2017-01-23T06:52:46.948Z,1019.48
2017-01-23T06:53:46.918Z,1019.5
2017-01-23T06:54:46.889Z,1019.48
2017-01-23T06:55:46.872Z,1019.46
2017-01-23T06:56:46.830Z,1019.46
2017-01-23T06:57:46.802Z,1019.47
2017-01-23T06:58:46.782Z,1019.47
2017-01-23T06:59:46.746Z,1019.45
2017-01-23T07:00:46.718Z,1019.46
2017-01-23T07:01:46.688Z,1019.44
2017-01-23T07:02:46.668Z,1019.44
2017-01-23T07:03:46.635Z,1019.45
2017-01-23T07:04:46.608Z,1019.41
2017-01-23T07:05:46.577Z,1019.39
2017-01-23T07:06:46.546Z,1019.37
2017-01-23T07:07:46.520Z,1019.4
2017-01-23T07:08:46.496Z,1019.34
2017-01-23T07:09:46.475Z,1019.36
2017-01-23T07:10:46.460Z,1019.33
2017-01-23T07:11:46.405Z,1019.33
2017-01-23T07:12:46.384Z,1019.32
2017-01-23T07:13:46.354Z,1019.33
2017-01-23T07:14:46.323Z,1019.35
2017-01-23T07:15:46.292Z,1019.32
2017-01-23T07:16:46.264Z,1019.36
2017-01-23T07:17:46.241Z,1019.38
2017-01-23T07:18:46.210Z,1019.45
2017-01-23T07:19:46.180Z,1019.52
2017-01-23T07:20:46.153Z,1019.52
2017-01-23T07:21:46.127Z,1019.52
2017-01-23T07:22:46.096Z,1019.59
2017-01-23T07:23:46.069Z,1019.58
2017-01-23T07:24:46.036Z,1019.61
2017-01-23T07:25:46.009Z,1019.56
2017-01-23T07:26:45.983Z,1019.56
2017-01-23T07:27:45.957Z,1019.57
2017-01-23T07:28:45.924Z,1019.58
2017-01-23T07:29:45.904Z,1019.59
2017-01-23T07:30:45.873Z,1019.59
2017-01-23T07:31:45.839Z,1019.63
2017-01-23T07:32:45.812Z,1019.62
2017-01-23T07:33:45.787Z,1019.61
2017-01-23T07:34:45.754Z,1019.6
2017-01-23T07:35:45.727Z,1019.6
2017-01-23T07:36:45.700Z,1019.61
2017-01-23T07:37:45.674Z,1019.61
2017-01-23T07:38:45.648Z,1019.62
2017-01-23T07:39:45.619Z,1019.63
2017-01-23T07:40:45.588Z,1019.6
2017-01-23T07:41:45.558Z,1019.64
2017-01-23T07:42:45.532Z,1019.62
2017-01-23T07:43:45.500Z,1019.66
2017-01-23T07:44:45.476Z,1019.61
2017-01-23T07:45:45.445Z,1019.65
2017-01-23T07:46:45.421Z,1019.68
2017-01-23T07:47:45.388Z,1019.61
2017-01-23T07:48:45.372Z,1019.61
2017-01-23T07:49:45.332Z,1019.66
2017-01-23T07:50:45.303Z,1019.7
2017-01-23T07:51:45.285Z,1019.7
2017-01-23T07:52:45.248Z,1019.71
2017-01-23T07:53:45.221Z,1019.75
2017-01-23T07:54:45.201Z,1019.81
2017-01-23T07:55:45.170Z,1019.79
2017-01-23T07:56:45.140Z,1019.78
2017-01-23T07:57:45.109Z,1019.81
2017-01-23T07:58:45.089Z,1019.81
2017-01-23T07:59:45.056Z,1019.84
2017-01-23T08:00:45.025Z,1019.84
2017-01-23T08:01:45.007Z,1019.85
2017-01-23T08:02:44.970Z,1019.82
2017-01-23T08:03:44.942Z,1019.83
2017-01-23T08:04:44.914Z,1019.81
2017-01-23T08:05:44.889Z,1019.79
2017-01-23T08:06:44.857Z,1019.79
2017-01-23T08:07:44.833Z,1019.71
2017-01-23T08:08:44.799Z,1019.76
2017-01-23T08:09:44.772Z,1019.77
2017-01-23T08:10:44.743Z,1019.79
2017-01-23T08:11:44.715Z,1019.79
2017-01-23T08:12:44.692Z,1019.86
2017-01-23T08:13:44.660Z,1019.86
2017-01-23T08:14:44.633Z,1019.84
2017-01-23T08:15:44.606Z,1019.83
2017-01-23T08:16:44.575Z,1019.85
2017-01-23T08:17:44.548Z,1019.84
2017-01-23T08:18:44.527Z,1019.83
2017-01-23T08:19:44.491Z,1019.82
2017-01-23T08:20:44.469Z,1019.82
2017-01-23T08:21:44.436Z,1019.78
2017-01-23T08:22:44.415Z,1019.88
2017-01-23T08:23:44.386Z,1019.86
2017-01-23T08:24:44.354Z,1019.83
2017-01-23T08:25:44.322Z,1019.83
2017-01-23T08:26:44.293Z,1019.84
2017-01-23T08:27:44.268Z,1019.88
2017-01-23T08:28:44.241Z,1019.88
2017-01-23T08:29:44.209Z,1019.87
2017-01-23T08:30:44.183Z,1019.91
2017-01-23T08:31:44.161Z,1019.93
2017-01-23T08:32:44.127Z,1019.94
2017-01-23T08:33:44.099Z,1019.92
2017-01-23T08:34:44.070Z,1019.96
2017-01-23T08:35:44.040Z,1019.97
2017-01-23T08:36:44.018Z,1019.94
2017-01-23T08:37:43.990Z,1020
2017-01-23T08:38:43.966Z,1019.98
2017-01-23T08:39:43.931Z,1019.96
2017-01-23T08:40:43.903Z,1019.97
2017-01-23T08:41:43.876Z,1019.97
2017-01-23T08:42:43.855Z,1019.98
2017-01-23T08:43:43.818Z,1019.96
2017-01-23T08:44:43.803Z,1019.99
2017-01-23T08:45:43.763Z,1019.98
2017-01-23T08:46:43.742Z,1020.01
2017-01-23T08:47:43.706Z,1019.99
2017-01-23T08:48:43.676Z,1019.99
2017-01-23T08:49:43.650Z,1020.01
2017-01-23T08:50:43.629Z,1020
2017-01-23T08:51:43.594Z,1019.99
2017-01-23T08:52:43.565Z,1019.99
2017-01-23T08:53:43.541Z,1020
2017-01-23T08:54:43.509Z,1019.98
2017-01-23T08:55:43.493Z,1020.02
2017-01-23T08:56:43.455Z,1020.07
2017-01-23T08:57:43.424Z,1020.05
2017-01-23T08:58:43.400Z,1020.04
2017-01-23T08:59:43.376Z,1020.03
2017-01-23T09:00:43.345Z,1020.01
2017-01-23T09:01:43.313Z,1020.01
2017-01-23T09:02:43.289Z,1020.01
2017-01-23T09:03:43.271Z,1019.98
2017-01-23T09:04:43.232Z,1020
2017-01-23T09:05:43.212Z,1020
2017-01-23T09:06:43.177Z,1020.04
2017-01-23T09:07:43.148Z,1020.02
2017-01-23T09:08:43.121Z,1020.07
2017-01-23T09:09:43.095Z,1020.07
2017-01-23T09:10:43.066Z,1020.11
2017-01-23T09:11:43.038Z,1020.16
2017-01-23T09:12:43.009Z,1020.14
2017-01-23T09:13:42.980Z,1020.11
2017-01-23T09:14:43.012Z,1020.13
2017-01-23T09:15:42.922Z,1020.13
2017-01-23T09:16:42.905Z,1020.15
2017-01-23T09:17:42.878Z,1020.22
2017-01-23T09:18:42.940Z,1020.19
2017-01-23T09:19:42.815Z,1020.17
2017-01-23T09:20:42.793Z,1020.23
2017-01-23T09:21:42.763Z,1020.19
2017-01-23T09:22:42.732Z,1020.23
2017-01-23T09:23:42.702Z,1020.26
2017-01-23T09:24:42.682Z,1020.27
2017-01-23T09:25:42.651Z,1020.27
2017-01-23T09:26:42.621Z,1020.26
2017-01-23T09:27:42.591Z,1020.27
2017-01-23T09:28:42.569Z,1020.3
2017-01-23T09:29:42.535Z,1020.25
2017-01-23T09:30:42.507Z,1020.22
2017-01-23T09:31:42.482Z,1020.22
2017-01-23T09:32:42.449Z,1020.19
2017-01-23T09:33:42.427Z,1020.21
2017-01-23T09:34:42.396Z,1020.21
2017-01-23T09:35:42.372Z,1020.28
2017-01-23T09:36:42.342Z,1020.25
2017-01-23T09:37:42.316Z,1020.3
2017-01-23T09:38:42.284Z,1020.27
2017-01-23T09:39:42.253Z,1020.32
2017-01-23T09:40:42.229Z,1020.32
2017-01-23T09:41:42.204Z,1020.32
2017-01-23T09:42:42.172Z,1020.3
2017-01-23T09:43:42.162Z,1020.32
2017-01-23T09:44:42.122Z,1020.3
2017-01-23T09:45:42.092Z,1020.37
2017-01-23T09:46:42.060Z,1020.29
2017-01-23T09:47:42.037Z,1020.29
2017-01-23T09:48:42.007Z,1020.31
2017-01-23T09:49:41.978Z,1020.25
2017-01-23T09:50:41.948Z,1020.27
2017-01-23T09:51:41.920Z,1020.26
2017-01-23T09:52:41.896Z,1020.28
2017-01-23T09:53:41.865Z,1020.28
2017-01-23T09:54:41.845Z,1020.27
2017-01-23T09:55:41.815Z,1020.27
2017-01-23T09:56:41.788Z,1020.27
2017-01-23T09:57:41.759Z,1020.25
2017-01-23T09:58:41.729Z,1020.27
2017-01-23T09:59:41.712Z,1020.25
2017-01-23T10:00:41.672Z,1020.26
2017-01-23T10:01:41.647Z,1020.29
2017-01-23T10:02:41.621Z,1020.29
2017-01-23T10:03:41.591Z,1020.25
2017-01-23T10:04:41.564Z,1020.24
2017-01-23T10:05:41.539Z,1020.23
2017-01-23T10:06:41.512Z,1020.24
2017-01-23T10:07:41.478Z,1020.27
2017-01-23T10:08:41.459Z,1020.25
2017-01-23T10:09:41.426Z,1020.24
2017-01-23T10:10:41.398Z,1020.24
2017-01-23T10:11:41.417Z,1020.2
2017-01-23T10:12:41.340Z,1020.23
2017-01-23T10:13:41.317Z,1020.22
2017-01-23T10:14:41.286Z,1020.22
2017-01-23T10:15:41.265Z,1020.25
2017-01-23T10:16:41.228Z,1020.24
2017-01-23T10:17:41.202Z,1020.23
2017-01-23T10:18:41.174Z,1020.21
2017-01-23T10:19:41.148Z,1020.19
2017-01-23T10:20:41.123Z,1020.26
2017-01-23T10:21:41.091Z,1020.27
2017-01-23T10:22:41.061Z,1020.23
2017-01-23T10:23:41.042Z,1020.23
2017-01-23T10:24:41.005Z,1020.26
2017-01-23T10:25:40.989Z,1020.24
2017-01-23T10:26:40.952Z,1020.25
2017-01-23T10:27:40.929Z,1020.28
2017-01-23T10:28:40.897Z,1020.26
2017-01-23T10:29:40.863Z,1020.31
2017-01-23T10:30:40.841Z,1020.3
2017-01-23T10:31:40.807Z,1020.29
2017-01-23T10:32:40.784Z,1020.24
2017-01-23T10:33:40.755Z,1020.26
2017-01-23T10:34:40.720Z,1020.26
2017-01-23T10:35:40.693Z,1020.22
2017-01-23T10:36:40.667Z,1020.23
2017-01-23T10:37:40.642Z,1020.26
2017-01-23T10:38:40.613Z,1020.19
2017-01-23T10:39:40.580Z,1020.23
2017-01-23T10:40:40.561Z,1020.22
2017-01-23T10:41:40.530Z,1020.23
2017-01-23T10:42:40.500Z,1020.24
2017-01-23T10:43:40.469Z,1020.21
2017-01-23T10:44:40.439Z,1020.17
2017-01-23T10:45:40.417Z,1020.21
2017-01-23T10:46:40.388Z,1020.17
2017-01-23T10:47:40.367Z,1020.17
2017-01-23T10:48:40.333Z,1020.18
2017-01-23T10:49:40.308Z,1020.18
2017-01-23T10:50:40.276Z,1020.18
2017-01-23T10:51:40.245Z,1020.16
2017-01-23T10:52:40.216Z,1020.15
2017-01-23T10:53:40.184Z,1020.11
2017-01-23T10:54:40.191Z,1020.11
2017-01-23T10:55:40.131Z,1020.09
2017-01-23T10:56:40.103Z,1020.09
2017-01-23T10:57:40.072Z,1020.07
2017-01-23T10:58:40.049Z,1020.07
2017-01-23T10:59:40.014Z,1020.05
2017-01-23T11:00:39.991Z,1020.07
2017-01-23T11:01:39.960Z,1020.1
2017-01-23T11:02:39.929Z,1020.08
2017-01-23T11:03:39.903Z,1020.12
2017-01-23T11:04:39.878Z,1020.14
2017-01-23T11:05:39.852Z,1020.15
2017-01-23T11:06:39.816Z,1020.18
2017-01-23T11:07:39.787Z,1020.2
2017-01-23T11:08:39.765Z,1020.21
2017-01-23T11:09:39.740Z,1020.22
2017-01-23T11:10:39.705Z,1020.21
2017-01-23T11:11:39.675Z,1020.17
2017-01-23T11:12:39.654Z,1020.21
2017-01-23T11:13:39.618Z,1020.21
2017-01-23T11:14:39.593Z,1020.26
2017-01-23T11:15:39.563Z,1020.22
2017-01-23T11:16:39.544Z,1020.24
2017-01-23T11:17:39.512Z,1020.31
2017-01-23T11:18:39.481Z,1020.22
2017-01-23T11:19:39.452Z,1020.29
2017-01-23T11:20:39.430Z,1020.26
2017-01-23T11:21:39.399Z,1020.22
2017-01-23T11:22:39.489Z,1020.25
2017-01-23T11:23:39.338Z,1020.24
2017-01-23T11:24:39.315Z,1020.24
2017-01-23T11:25:39.282Z,1020.23
2017-01-23T11:26:39.257Z,1020.24
2017-01-23T11:27:39.229Z,1020.2
2017-01-23T11:28:39.201Z,1020.25
2017-01-23T11:29:39.196Z,1020.27
2017-01-23T11:30:39.145Z,1020.25
2017-01-23T11:31:39.115Z,1020.29
2017-01-23T11:32:39.090Z,1020.27
2017-01-23T11:33:39.063Z,1020.23
2017-01-23T11:34:39.031Z,1020.26
2017-01-23T11:35:39.004Z,1020.24
2017-01-23T11:36:38.985Z,1020.27
2017-01-23T11:37:38.949Z,1020.28
2017-01-23T11:38:38.921Z,1020.25
2017-01-23T11:39:38.892Z,1020.23
2017-01-23T11:40:38.868Z,1020.22
2017-01-23T11:41:38.837Z,1020.23
2017-01-23T11:42:38.808Z,1020.22
2017-01-23T11:43:38.782Z,1020.21
2017-01-23T11:44:38.766Z,1020.24
2017-01-23T11:45:38.726Z,1020.23
2017-01-23T11:46:38.701Z,1020.22
2017-01-23T11:47:38.669Z,1020.21
2017-01-23T11:48:38.645Z,1020.19
2017-01-23T11:49:38.615Z,1020.14
2017-01-23T11:50:38.591Z,1020.2
2017-01-23T11:51:38.560Z,1020.14
2017-01-23T11:52:38.530Z,1020.12
2017-01-23T11:53:38.505Z,1020.16
2017-01-23T11:54:38.479Z,1020.15
2017-01-23T11:55:38.450Z,1020.16
2017-01-23T11:56:38.420Z,1020.15
2017-01-23T11:57:38.393Z,1020.11
2017-01-23T11:58:38.369Z,1020.11
2017-01-23T11:59:38.335Z,1020.11
2017-01-23T12:00:38.311Z,1020.09
2017-01-23T12:01:38.288Z,1020.05
2017-01-23T12:02:38.251Z,1020.01
2017-01-23T12:03:38.228Z,1020.04
2017-01-23T12:04:38.198Z,1020.06
2017-01-23T12:05:38.172Z,1020.02
2017-01-23T12:06:38.143Z,1020.06
2017-01-23T12:07:38.115Z,1020.01
2017-01-23T12:08:38.094Z,1020.03